sensor_id;sensor_type;location;lat;lon;timestamp;temperature;humidity
13231;DHT22;6681;53.254;10.398;2022-07-12T00:01:05;17.50;99.90
13231;DHT22;6681;53.254;10.398;2022-07-12T00:03:31;17.50;99.90
13231;DHT22;6681;53.254;10.398;2022-07-12T00:05:56;17.40;99.90
13231;DHT22;6681;53.254;10.398;2022-07-12T00:08:22;17.40;99.90
13231;DHT22;6681;53.254;10.398;2022-07-12T00:10:48;17.40;99.90
13231;DHT22;6681;53.254;10.398;2022-07-12T00:13:14;17.40;99.90
13231;DHT22;6681;53.254;10.398;2022-07-12T00:15:41;17.40;99.90
13231;DHT22;6681;53.254;10.398;2022-07-12T00:18:06;17.40;99.90
13231;DHT22;6681;53.254;10.398;2022-07-12T00:20:32;17.30;99.90
13231;DHT22;6681;53.254;10.398;2022-07-12T00:22:58;17.30;99.90
13231;DHT22;6681;53.254;10.398;2022-07-12T00:25:23;17.20;99.90
13231;DHT22;6681;53.254;10.398;2022-07-12T00:27:51;17.20;99.90
13231;DHT22;6681;53.254;10.398;2022-07-12T00:30:17;17.10;99.90
13231;DHT22;6681;53.254;10.398;2022-07-12T00:32:43;17.10;99.90
13231;DHT22;6681;53.254;10.398;2022-07-12T00:35:08;17.10;99.90
13231;DHT22;6681;53.254;10.398;2022-07-12T00:37:34;17.00;99.90
13231;DHT22;6681;53.254;10.398;2022-07-12T00:40:00;17.00;99.90
13231;DHT22;6681;53.254;10.398;2022-07-12T00:42:26;17.00;99.90
13231;DHT22;6681;53.254;10.398;2022-07-12T00:44:53;17.00;99.90
13231;DHT22;6681;53.254;10.398;2022-07-12T00:47:38;16.90;99.90
13231;DHT22;6681;53.254;10.398;2022-07-12T00:50:15;17.00;99.90
13231;DHT22;6681;53.254;10.398;2022-07-12T00:52:42;16.90;99.90
13231;DHT22;6681;53.254;10.398;2022-07-12T00:55:08;16.90;99.90
13231;DHT22;6681;53.254;10.398;2022-07-12T00:57:35;16.90;99.90
13231;DHT22;6681;53.254;10.398;2022-07-12T01:00:03;16.90;99.90
13231;DHT22;6681;53.254;10.398;2022-07-12T01:02:30;16.80;99.90
13231;DHT22;6681;53.254;10.398;2022-07-12T01:04:56;16.70;99.90
13231;DHT22;6681;53.254;10.398;2022-07-12T01:07:23;16.70;99.90
13231;DHT22;6681;53.254;10.398;2022-07-12T01:09:54;16.60;99.90
13231;DHT22;6681;53.254;10.398;2022-07-12T01:12:24;16.60;99.90
13231;DHT22;6681;53.254;10.398;2022-07-12T01:14:50;16.60;99.90
13231;DHT22;6681;53.254;10.398;2022-07-12T01:17:19;16.50;99.90
13231;DHT22;6681;53.254;10.398;2022-07-12T01:19:46;16.40;99.90
13231;DHT22;6681;53.254;10.398;2022-07-12T01:22:14;16.40;99.90
13231;DHT22;6681;53.254;10.398;2022-07-12T01:24:41;16.40;99.90
13231;DHT22;6681;53.254;10.398;2022-07-12T01:27:08;16.30;99.90
13231;DHT22;6681;53.254;10.398;2022-07-12T01:29:34;16.30;99.90
13231;DHT22;6681;53.254;10.398;2022-07-12T01:32:00;16.30;99.90
13231;DHT22;6681;53.254;10.398;2022-07-12T01:34:47;16.30;99.90
13231;DHT22;6681;53.254;10.398;2022-07-12T01:37:14;16.20;99.90
13231;DHT22;6681;53.254;10.398;2022-07-12T01:39:41;16.10;99.90
13231;DHT22;6681;53.254;10.398;2022-07-12T01:42:06;16.10;99.90
13231;DHT22;6681;53.254;10.398;2022-07-12T01:44:33;16.10;99.90
13231;DHT22;6681;53.254;10.398;2022-07-12T01:46:59;16.00;99.90
13231;DHT22;6681;53.254;10.398;2022-07-12T01:49:25;16.00;99.90
13231;DHT22;6681;53.254;10.398;2022-07-12T01:51:51;16.00;99.90
13231;DHT22;6681;53.254;10.398;2022-07-12T01:54:16;16.00;99.90
13231;DHT22;6681;53.254;10.398;2022-07-12T01:56:42;15.90;99.90
13231;DHT22;6681;53.254;10.398;2022-07-12T01:59:08;15.90;99.90
13231;DHT22;6681;53.254;10.398;2022-07-12T02:01:35;15.80;99.90
13231;DHT22;6681;53.254;10.398;2022-07-12T02:04:03;15.80;99.90
13231;DHT22;6681;53.254;10.398;2022-07-12T02:06:30;15.80;99.90
13231;DHT22;6681;53.254;10.398;2022-07-12T02:08:55;15.80;99.90
13231;DHT22;6681;53.254;10.398;2022-07-12T02:11:21;15.80;99.90
13231;DHT22;6681;53.254;10.398;2022-07-12T02:13:47;15.80;99.90
13231;DHT22;6681;53.254;10.398;2022-07-12T02:16:13;15.80;99.90
13231;DHT22;6681;53.254;10.398;2022-07-12T02:18:38;15.80;99.90
13231;DHT22;6681;53.254;10.398;2022-07-12T02:21:04;15.80;99.90
13231;DHT22;6681;53.254;10.398;2022-07-12T02:23:30;15.70;99.90
13231;DHT22;6681;53.254;10.398;2022-07-12T02:25:55;15.70;99.90
13231;DHT22;6681;53.254;10.398;2022-07-12T02:28:21;15.70;99.90
13231;DHT22;6681;53.254;10.398;2022-07-12T02:30:46;15.60;99.90
13231;DHT22;6681;53.254;10.398;2022-07-12T02:33:12;15.60;99.90
13231;DHT22;6681;53.254;10.398;2022-07-12T02:35:41;15.60;99.90
13231;DHT22;6681;53.254;10.398;2022-07-12T02:38:07;15.60;99.90
13231;DHT22;6681;53.254;10.398;2022-07-12T02:40:33;15.60;99.90
13231;DHT22;6681;53.254;10.398;2022-07-12T02:43:17;15.50;99.90
13231;DHT22;6681;53.254;10.398;2022-07-12T02:45:43;15.40;99.90
13231;DHT22;6681;53.254;10.398;2022-07-12T02:48:08;15.40;99.90
13231;DHT22;6681;53.254;10.398;2022-07-12T02:50:36;15.40;99.90
13231;DHT22;6681;53.254;10.398;2022-07-12T02:53:03;15.40;99.90
13231;DHT22;6681;53.254;10.398;2022-07-12T02:55:29;15.30;99.90
13231;DHT22;6681;53.254;10.398;2022-07-12T02:57:54;15.30;99.90
13231;DHT22;6681;53.254;10.398;2022-07-12T03:00:20;15.30;99.90
13231;DHT22;6681;53.254;10.398;2022-07-12T03:02:45;15.30;99.90
13231;DHT22;6681;53.254;10.398;2022-07-12T03:05:11;15.30;99.90
13231;DHT22;6681;53.254;10.398;2022-07-12T03:07:36;15.30;99.90
13231;DHT22;6681;53.254;10.398;2022-07-12T03:10:04;15.20;99.90
13231;DHT22;6681;53.254;10.398;2022-07-12T03:12:29;15.20;99.90
13231;DHT22;6681;53.254;10.398;2022-07-12T03:14:55;15.10;99.90
13231;DHT22;6681;53.254;10.398;2022-07-12T03:17:21;15.10;99.90
13231;DHT22;6681;53.254;10.398;2022-07-12T03:19:46;15.10;99.90
13231;DHT22;6681;53.254;10.398;2022-07-12T03:22:12;15.10;99.90
13231;DHT22;6681;53.254;10.398;2022-07-12T03:24:37;15.00;99.90
13231;DHT22;6681;53.254;10.398;2022-07-12T03:27:03;15.10;99.90
13231;DHT22;6681;53.254;10.398;2022-07-12T03:29:29;15.00;99.90
13231;DHT22;6681;53.254;10.398;2022-07-12T03:31:55;15.00;99.90
13231;DHT22;6681;53.254;10.398;2022-07-12T03:34:20;15.00;99.90
13231;DHT22;6681;53.254;10.398;2022-07-12T03:36:46;15.00;99.90
13231;DHT22;6681;53.254;10.398;2022-07-12T03:39:11;15.00;99.90
13231;DHT22;6681;53.254;10.398;2022-07-12T03:41:37;15.00;99.90
13231;DHT22;6681;53.254;10.398;2022-07-12T03:44:03;14.90;99.90
13231;DHT22;6681;53.254;10.398;2022-07-12T03:46:29;15.00;99.90
13231;DHT22;6681;53.254;10.398;2022-07-12T03:48:55;15.00;99.90
13231;DHT22;6681;53.254;10.398;2022-07-12T03:51:20;15.00;99.90
13231;DHT22;6681;53.254;10.398;2022-07-12T03:53:46;15.00;99.90
13231;DHT22;6681;53.254;10.398;2022-07-12T03:56:11;15.00;99.90
13231;DHT22;6681;53.254;10.398;2022-07-12T03:58:57;14.90;99.90
13231;DHT22;6681;53.254;10.398;2022-07-12T04:01:22;14.90;99.90
13231;DHT22;6681;53.254;10.398;2022-07-12T04:03:48;15.00;99.90
13231;DHT22;6681;53.254;10.398;2022-07-12T04:06:14;14.90;99.90
13231;DHT22;6681;53.254;10.398;2022-07-12T04:08:39;14.90;99.90
13231;DHT22;6681;53.254;10.398;2022-07-12T04:11:05;14.90;99.90
13231;DHT22;6681;53.254;10.398;2022-07-12T04:13:31;15.00;99.90
13231;DHT22;6681;53.254;10.398;2022-07-12T04:15:57;14.90;99.90
13231;DHT22;6681;53.254;10.398;2022-07-12T04:18:24;14.90;99.90
13231;DHT22;6681;53.254;10.398;2022-07-12T04:20:49;14.90;99.90
13231;DHT22;6681;53.254;10.398;2022-07-12T04:23:15;14.90;99.90
13231;DHT22;6681;53.254;10.398;2022-07-12T04:25:41;15.00;99.90
13231;DHT22;6681;53.254;10.398;2022-07-12T04:28:06;15.00;99.90
13231;DHT22;6681;53.254;10.398;2022-07-12T04:30:32;15.00;99.90
13231;DHT22;6681;53.254;10.398;2022-07-12T04:32:57;14.90;99.90
13231;DHT22;6681;53.254;10.398;2022-07-12T04:35:23;15.00;99.90
13231;DHT22;6681;53.254;10.398;2022-07-12T04:37:49;15.00;99.90
13231;DHT22;6681;53.254;10.398;2022-07-12T04:40:15;15.00;99.90
13231;DHT22;6681;53.254;10.398;2022-07-12T04:42:40;15.00;99.90
13231;DHT22;6681;53.254;10.398;2022-07-12T04:45:06;15.00;99.90
13231;DHT22;6681;53.254;10.398;2022-07-12T04:47:35;15.00;99.90
13231;DHT22;6681;53.254;10.398;2022-07-12T04:50:05;15.00;99.90
13231;DHT22;6681;53.254;10.398;2022-07-12T04:52:31;15.10;99.90
13231;DHT22;6681;53.254;10.398;2022-07-12T04:54:57;15.10;99.90
13231;DHT22;6681;53.254;10.398;2022-07-12T04:57:23;15.10;99.90
13231;DHT22;6681;53.254;10.398;2022-07-12T04:59:48;15.10;99.90
13231;DHT22;6681;53.254;10.398;2022-07-12T05:02:14;15.20;99.90
13231;DHT22;6681;53.254;10.398;2022-07-12T05:04:39;15.10;99.90
13231;DHT22;6681;53.254;10.398;2022-07-12T05:07:06;15.20;99.90
13231;DHT22;6681;53.254;10.398;2022-07-12T05:09:32;15.10;99.90
13231;DHT22;6681;53.254;10.398;2022-07-12T05:11:57;18.00;99.90
13231;DHT22;6681;53.254;10.398;2022-07-12T05:14:23;15.20;99.90
13231;DHT22;6681;53.254;10.398;2022-07-12T05:16:49;15.20;99.90
13231;DHT22;6681;53.254;10.398;2022-07-12T05:19:15;15.10;99.90
13231;DHT22;6681;53.254;10.398;2022-07-12T05:21:41;15.10;99.90
13231;DHT22;6681;53.254;10.398;2022-07-12T05:24:07;13.20;99.90
13231;DHT22;6681;53.254;10.398;2022-07-12T05:26:33;16.00;99.90
13231;DHT22;6681;53.254;10.398;2022-07-12T05:28:59;15.10;99.90
13231;DHT22;6681;53.254;10.398;2022-07-12T05:31:25;15.20;99.90
13231;DHT22;6681;53.254;10.398;2022-07-12T05:33:52;15.10;99.90
13231;DHT22;6681;53.254;10.398;2022-07-12T05:36:18;15.20;99.90
13231;DHT22;6681;53.254;10.398;2022-07-12T05:38:44;15.20;99.90
13231;DHT22;6681;53.254;10.398;2022-07-12T05:41:09;15.20;99.90
13231;DHT22;6681;53.254;10.398;2022-07-12T05:43:35;15.30;99.90
13231;DHT22;6681;53.254;10.398;2022-07-12T05:46:01;15.30;99.90
13231;DHT22;6681;53.254;10.398;2022-07-12T05:48:27;15.40;99.90
13231;DHT22;6681;53.254;10.398;2022-07-12T05:50:52;15.40;99.90
13231;DHT22;6681;53.254;10.398;2022-07-12T05:53:18;15.40;99.90
13231;DHT22;6681;53.254;10.398;2022-07-12T05:55:54;15.40;99.90
13231;DHT22;6681;53.254;10.398;2022-07-12T05:58:20;15.40;99.90
13231;DHT22;6681;53.254;10.398;2022-07-12T06:00:46;17.40;99.90
13231;DHT22;6681;53.254;10.398;2022-07-12T06:03:13;15.50;99.90
13231;DHT22;6681;53.254;10.398;2022-07-12T06:05:39;15.60;99.90
13231;DHT22;6681;53.254;10.398;2022-07-12T06:08:05;15.60;99.90
13231;DHT22;6681;53.254;10.398;2022-07-12T06:10:31;15.70;99.90
13231;DHT22;6681;53.254;10.398;2022-07-12T06:12:59;15.80;99.90
13231;DHT22;6681;53.254;10.398;2022-07-12T06:15:25;15.90;99.90
13231;DHT22;6681;53.254;10.398;2022-07-12T06:17:51;16.00;99.90
13231;DHT22;6681;53.254;10.398;2022-07-12T06:20:16;16.00;99.90
13231;DHT22;6681;53.254;10.398;2022-07-12T06:22:42;16.10;99.90
13231;DHT22;6681;53.254;10.398;2022-07-12T06:25:08;16.20;99.90
13231;DHT22;6681;53.254;10.398;2022-07-12T06:27:34;16.30;99.90
13231;DHT22;6681;53.254;10.398;2022-07-12T06:29:59;16.40;99.90
13231;DHT22;6681;53.254;10.398;2022-07-12T06:32:25;16.50;99.90
13231;DHT22;6681;53.254;10.398;2022-07-12T06:34:51;16.60;99.90
13231;DHT22;6681;53.254;10.398;2022-07-12T06:37:16;16.70;99.90
13231;DHT22;6681;53.254;10.398;2022-07-12T06:39:42;16.80;99.90
13231;DHT22;6681;53.254;10.398;2022-07-12T06:42:09;16.90;99.90
13231;DHT22;6681;53.254;10.398;2022-07-12T06:44:35;16.90;99.90
13231;DHT22;6681;53.254;10.398;2022-07-12T06:47:01;17.00;99.90
13231;DHT22;6681;53.254;10.398;2022-07-12T06:49:27;17.10;99.90
13231;DHT22;6681;53.254;10.398;2022-07-12T06:51:52;17.20;99.90
13231;DHT22;6681;53.254;10.398;2022-07-12T06:54:18;17.30;99.90
13231;DHT22;6681;53.254;10.398;2022-07-12T06:56:44;17.30;99.90
13231;DHT22;6681;53.254;10.398;2022-07-12T06:59:09;17.40;99.90
13231;DHT22;6681;53.254;10.398;2022-07-12T07:01:38;17.50;99.90
13231;DHT22;6681;53.254;10.398;2022-07-12T07:04:04;17.60;99.90
13231;DHT22;6681;53.254;10.398;2022-07-12T07:06:29;17.70;99.90
13231;DHT22;6681;53.254;10.398;2022-07-12T07:08:55;17.80;99.90
13231;DHT22;6681;53.254;10.398;2022-07-12T07:11:21;17.90;99.90
13231;DHT22;6681;53.254;10.398;2022-07-12T07:13:46;17.90;99.90
13231;DHT22;6681;53.254;10.398;2022-07-12T07:16:12;18.00;99.90
13231;DHT22;6681;53.254;10.398;2022-07-12T07:18:39;18.10;99.90
13231;DHT22;6681;53.254;10.398;2022-07-12T07:21:06;18.10;99.90
13231;DHT22;6681;53.254;10.398;2022-07-12T07:23:32;18.30;99.90
13231;DHT22;6681;53.254;10.398;2022-07-12T07:25:57;18.30;99.90
13231;DHT22;6681;53.254;10.398;2022-07-12T07:28:23;18.40;99.90
13231;DHT22;6681;53.254;10.398;2022-07-12T07:30:48;18.40;99.90
13231;DHT22;6681;53.254;10.398;2022-07-12T07:33:24;18.50;99.90
13231;DHT22;6681;53.254;10.398;2022-07-12T07:35:52;18.60;99.90
13231;DHT22;6681;53.254;10.398;2022-07-12T07:38:18;18.70;99.90
13231;DHT22;6681;53.254;10.398;2022-07-12T07:40:44;18.80;99.90
13231;DHT22;6681;53.254;10.398;2022-07-12T07:43:10;18.90;99.90
13231;DHT22;6681;53.254;10.398;2022-07-12T07:45:36;18.90;99.90
13231;DHT22;6681;53.254;10.398;2022-07-12T07:48:02;19.00;99.90
13231;DHT22;6681;53.254;10.398;2022-07-12T07:50:29;19.10;99.90
13231;DHT22;6681;53.254;10.398;2022-07-12T07:52:55;19.10;99.90
13231;DHT22;6681;53.254;10.398;2022-07-12T07:55:21;19.10;99.90
13231;DHT22;6681;53.254;10.398;2022-07-12T07:57:46;19.10;99.90
13231;DHT22;6681;53.254;10.398;2022-07-12T08:00:13;19.10;99.90
13231;DHT22;6681;53.254;10.398;2022-07-12T08:02:40;19.10;99.90
13231;DHT22;6681;53.254;10.398;2022-07-12T08:05:06;19.10;99.90
13231;DHT22;6681;53.254;10.398;2022-07-12T08:07:32;19.20;99.90
13231;DHT22;6681;53.254;10.398;2022-07-12T08:09:58;19.30;99.90
13231;DHT22;6681;53.254;10.398;2022-07-12T08:12:23;19.30;99.90
13231;DHT22;6681;53.254;10.398;2022-07-12T08:14:49;19.30;99.90
13231;DHT22;6681;53.254;10.398;2022-07-12T08:17:14;19.30;99.90
13231;DHT22;6681;53.254;10.398;2022-07-12T08:19:40;19.40;99.90
13231;DHT22;6681;53.254;10.398;2022-07-12T08:22:06;19.40;99.90
13231;DHT22;6681;53.254;10.398;2022-07-12T08:24:32;19.40;99.90
13231;DHT22;6681;53.254;10.398;2022-07-12T08:26:57;19.40;99.90
13231;DHT22;6681;53.254;10.398;2022-07-12T08:29:23;19.40;99.90
13231;DHT22;6681;53.254;10.398;2022-07-12T08:31:48;19.40;99.90
13231;DHT22;6681;53.254;10.398;2022-07-12T08:34:14;19.60;99.90
13231;DHT22;6681;53.254;10.398;2022-07-12T08:36:39;19.80;99.90
13231;DHT22;6681;53.254;10.398;2022-07-12T08:39:05;19.90;99.90
13231;DHT22;6681;53.254;10.398;2022-07-12T08:41:31;20.00;99.90
13231;DHT22;6681;53.254;10.398;2022-07-12T08:43:56;20.00;99.90
13231;DHT22;6681;53.254;10.398;2022-07-12T08:46:22;20.10;99.90
13231;DHT22;6681;53.254;10.398;2022-07-12T08:48:48;20.20;99.90
13231;DHT22;6681;53.254;10.398;2022-07-12T08:51:18;20.30;99.90
13231;DHT22;6681;53.254;10.398;2022-07-12T08:53:44;20.30;99.90
13231;DHT22;6681;53.254;10.398;2022-07-12T08:56:32;20.30;99.90
13231;DHT22;6681;53.254;10.398;2022-07-12T08:59:15;20.40;99.90
13231;DHT22;6681;53.254;10.398;2022-07-12T09:02:00;20.40;99.90
13231;DHT22;6681;53.254;10.398;2022-07-12T09:04:26;20.50;99.90
13231;DHT22;6681;53.254;10.398;2022-07-12T09:06:55;20.60;99.90
13231;DHT22;6681;53.254;10.398;2022-07-12T09:09:31;20.60;99.90
13231;DHT22;6681;53.254;10.398;2022-07-12T09:11:58;20.70;99.90
13231;DHT22;6681;53.254;10.398;2022-07-12T09:14:24;20.70;99.90
13231;DHT22;6681;53.254;10.398;2022-07-12T09:19:25;20.80;99.90
13231;DHT22;6681;53.254;10.398;2022-07-12T09:21:54;20.80;99.90
13231;DHT22;6681;53.254;10.398;2022-07-12T09:24:39;20.90;99.90
13231;DHT22;6681;53.254;10.398;2022-07-12T09:27:05;20.90;99.90
13231;DHT22;6681;53.254;10.398;2022-07-12T09:29:31;20.90;99.90
13231;DHT22;6681;53.254;10.398;2022-07-12T09:32:06;20.90;99.90
13231;DHT22;6681;53.254;10.398;2022-07-12T09:34:56;21.00;99.90
13231;DHT22;6681;53.254;10.398;2022-07-12T09:37:40;21.10;99.90
13231;DHT22;6681;53.254;10.398;2022-07-12T09:40:07;21.30;99.90
13231;DHT22;6681;53.254;10.398;2022-07-12T09:42:34;21.40;99.90
13231;DHT22;6681;53.254;10.398;2022-07-12T09:45:01;21.50;99.90
13231;DHT22;6681;53.254;10.398;2022-07-12T09:47:26;21.50;99.90
13231;DHT22;6681;53.254;10.398;2022-07-12T09:49:53;21.70;99.90
13231;DHT22;6681;53.254;10.398;2022-07-12T09:52:25;21.70;99.90
13231;DHT22;6681;53.254;10.398;2022-07-12T09:54:52;21.80;99.90
13231;DHT22;6681;53.254;10.398;2022-07-12T09:57:28;21.90;99.90
13231;DHT22;6681;53.254;10.398;2022-07-12T09:59:59;22.00;99.90
13231;DHT22;6681;53.254;10.398;2022-07-12T10:02:26;22.00;99.90
13231;DHT22;6681;53.254;10.398;2022-07-12T10:04:52;22.10;99.90
13231;DHT22;6681;53.254;10.398;2022-07-12T10:07:18;22.10;99.90
13231;DHT22;6681;53.254;10.398;2022-07-12T10:09:46;22.10;99.90
13231;DHT22;6681;53.254;10.398;2022-07-12T10:12:15;22.20;99.90
13231;DHT22;6681;53.254;10.398;2022-07-12T10:15:03;22.30;99.90
13231;DHT22;6681;53.254;10.398;2022-07-12T10:17:30;22.30;99.90
13231;DHT22;6681;53.254;10.398;2022-07-12T10:20:18;22.40;99.90
13231;DHT22;6681;53.254;10.398;2022-07-12T10:22:44;22.30;99.90
13231;DHT22;6681;53.254;10.398;2022-07-12T10:25:40;22.40;99.90
13231;DHT22;6681;53.254;10.398;2022-07-12T10:28:05;22.60;99.90
13231;DHT22;6681;53.254;10.398;2022-07-12T10:30:44;22.70;99.90
13231;DHT22;6681;53.254;10.398;2022-07-12T10:33:29;22.90;99.90
13231;DHT22;6681;53.254;10.398;2022-07-12T10:36:07;23.00;99.90
13231;DHT22;6681;53.254;10.398;2022-07-12T10:38:36;23.00;99.90
13231;DHT22;6681;53.254;10.398;2022-07-12T10:41:19;22.90;99.90
13231;DHT22;6681;53.254;10.398;2022-07-12T10:43:45;22.90;99.90
13231;DHT22;6681;53.254;10.398;2022-07-12T10:46:30;23.00;99.90
13231;DHT22;6681;53.254;10.398;2022-07-12T10:54:41;23.20;99.90
13231;DHT22;6681;53.254;10.398;2022-07-12T10:57:07;23.20;99.90
13231;DHT22;6681;53.254;10.398;2022-07-12T10:59:35;23.20;99.90
13231;DHT22;6681;53.254;10.398;2022-07-12T11:02:01;23.30;99.90
13231;DHT22;6681;53.254;10.398;2022-07-12T11:04:27;23.30;99.90
13231;DHT22;6681;53.254;10.398;2022-07-12T11:06:54;23.50;99.90
13231;DHT22;6681;53.254;10.398;2022-07-12T11:09:23;23.60;99.90
13231;DHT22;6681;53.254;10.398;2022-07-12T11:11:50;23.90;99.90
13231;DHT22;6681;53.254;10.398;2022-07-12T11:14:29;24.10;99.90
13231;DHT22;6681;53.254;10.398;2022-07-12T11:16:56;24.30;99.90
13231;DHT22;6681;53.254;10.398;2022-07-12T11:19:25;24.40;99.90
13231;DHT22;6681;53.254;10.398;2022-07-12T11:21:52;24.50;99.90
13231;DHT22;6681;53.254;10.398;2022-07-12T11:24:24;24.70;99.90
13231;DHT22;6681;53.254;10.398;2022-07-12T11:26:50;24.80;99.90
13231;DHT22;6681;53.254;10.398;2022-07-12T11:29:36;24.90;99.90
13231;DHT22;6681;53.254;10.398;2022-07-12T11:32:04;25.00;99.90
13231;DHT22;6681;53.254;10.398;2022-07-12T11:34:31;25.20;99.90
13231;DHT22;6681;53.254;10.398;2022-07-12T11:36:58;25.40;99.90
13231;DHT22;6681;53.254;10.398;2022-07-12T11:39:37;25.50;99.90
13231;DHT22;6681;53.254;10.398;2022-07-12T11:42:05;25.60;99.90
13231;DHT22;6681;53.254;10.398;2022-07-12T11:44:47;25.70;99.90
13231;DHT22;6681;53.254;10.398;2022-07-12T11:47:14;25.80;99.90
13231;DHT22;6681;53.254;10.398;2022-07-12T11:49:50;25.80;99.90
13231;DHT22;6681;53.254;10.398;2022-07-12T11:52:16;25.90;99.90
13231;DHT22;6681;53.254;10.398;2022-07-12T11:54:47;26.00;99.90
13231;DHT22;6681;53.254;10.398;2022-07-12T11:57:13;26.20;99.90
13231;DHT22;6681;53.254;10.398;2022-07-12T11:59:39;26.10;99.90
13231;DHT22;6681;53.254;10.398;2022-07-12T12:02:10;26.30;99.90
13231;DHT22;6681;53.254;10.398;2022-07-12T12:04:49;26.30;99.90
13231;DHT22;6681;53.254;10.398;2022-07-12T12:07:16;26.60;99.90
13231;DHT22;6681;53.254;10.398;2022-07-12T12:15:17;27.10;99.90
13231;DHT22;6681;53.254;10.398;2022-07-12T12:20:39;27.10;99.90
13231;DHT22;6681;53.254;10.398;2022-07-12T12:23:06;27.20;99.90
13231;DHT22;6681;53.254;10.398;2022-07-12T12:25:33;27.50;99.90
13231;DHT22;6681;53.254;10.398;2022-07-12T12:28:03;27.50;99.90
13231;DHT22;6681;53.254;10.398;2022-07-12T12:33:34;27.60;99.90
13231;DHT22;6681;53.254;10.398;2022-07-12T12:38:44;27.90;99.90
13231;DHT22;6681;53.254;10.398;2022-07-12T12:41:10;28.00;99.90
13231;DHT22;6681;53.254;10.398;2022-07-12T12:43:36;28.10;99.90
13231;DHT22;6681;53.254;10.398;2022-07-12T12:46:02;28.20;99.90
13231;DHT22;6681;53.254;10.398;2022-07-12T12:48:32;28.30;99.90
13231;DHT22;6681;53.254;10.398;2022-07-12T12:51:17;28.40;99.90
13231;DHT22;6681;53.254;10.398;2022-07-12T12:53:43;28.50;99.90
13231;DHT22;6681;53.254;10.398;2022-07-12T12:56:11;28.70;99.90
13231;DHT22;6681;53.254;10.398;2022-07-12T12:58:37;28.80;99.90
13231;DHT22;6681;53.254;10.398;2022-07-12T13:01:04;29.00;99.90
13231;DHT22;6681;53.254;10.398;2022-07-12T13:03:30;29.10;99.90
13231;DHT22;6681;53.254;10.398;2022-07-12T13:05:56;29.10;99.90
13231;DHT22;6681;53.254;10.398;2022-07-12T13:08:23;29.30;99.90
13231;DHT22;6681;53.254;10.398;2022-07-12T13:10:49;29.40;99.90
13231;DHT22;6681;53.254;10.398;2022-07-12T13:13:34;29.40;99.90
13231;DHT22;6681;53.254;10.398;2022-07-12T13:16:00;29.30;99.90
13231;DHT22;6681;53.254;10.398;2022-07-12T13:18:26;29.30;99.90
13231;DHT22;6681;53.254;10.398;2022-07-12T13:20:52;29.30;99.90
13231;DHT22;6681;53.254;10.398;2022-07-12T13:23:17;29.20;99.90
13231;DHT22;6681;53.254;10.398;2022-07-12T13:25:43;29.30;99.90
13231;DHT22;6681;53.254;10.398;2022-07-12T13:28:08;29.30;99.90
13231;DHT22;6681;53.254;10.398;2022-07-12T13:30:36;29.30;99.90
13231;DHT22;6681;53.254;10.398;2022-07-12T13:33:01;29.40;99.90
13231;DHT22;6681;53.254;10.398;2022-07-12T13:35:27;29.50;99.90
13231;DHT22;6681;53.254;10.398;2022-07-12T13:37:55;29.60;99.60
13231;DHT22;6681;53.254;10.398;2022-07-12T13:40:20;29.70;99.90
13231;DHT22;6681;53.254;10.398;2022-07-12T13:42:51;29.80;99.90
13231;DHT22;6681;53.254;10.398;2022-07-12T13:45:22;30.00;99.90
13231;DHT22;6681;53.254;10.398;2022-07-12T13:47:49;30.10;99.90
13231;DHT22;6681;53.254;10.398;2022-07-12T13:50:33;30.20;99.40
13231;DHT22;6681;53.254;10.398;2022-07-12T13:52:59;30.30;99.90
13231;DHT22;6681;53.254;10.398;2022-07-12T13:55:44;30.20;98.70
13231;DHT22;6681;53.254;10.398;2022-07-12T13:58:10;30.20;97.80
13231;DHT22;6681;53.254;10.398;2022-07-12T14:00:36;29.90;96.40
13231;DHT22;6681;53.254;10.398;2022-07-12T14:03:02;29.90;97.30
13231;DHT22;6681;53.254;10.398;2022-07-12T14:05:28;30.10;97.00
13231;DHT22;6681;53.254;10.398;2022-07-12T14:10:38;30.10;95.80
13231;DHT22;6681;53.254;10.398;2022-07-12T14:13:03;30.20;96.00
13231;DHT22;6681;53.254;10.398;2022-07-12T14:15:29;30.20;96.10
13231;DHT22;6681;53.254;10.398;2022-07-12T14:18:05;30.10;95.70
13231;DHT22;6681;53.254;10.398;2022-07-12T14:20:32;30.20;97.50
13231;DHT22;6681;53.254;10.398;2022-07-12T14:22:59;30.20;96.50
13231;DHT22;6681;53.254;10.398;2022-07-12T14:25:24;30.10;97.30
13231;DHT22;6681;53.254;10.398;2022-07-12T14:27:50;30.20;96.90
13231;DHT22;6681;53.254;10.398;2022-07-12T14:33:00;30.30;95.20
13231;DHT22;6681;53.254;10.398;2022-07-12T14:35:26;30.20;96.10
13231;DHT22;6681;53.254;10.398;2022-07-12T14:37:51;30.30;95.80
13231;DHT22;6681;53.254;10.398;2022-07-12T14:40:17;30.10;96.90
13231;DHT22;6681;53.254;10.398;2022-07-12T14:42:42;30.20;97.00
13231;DHT22;6681;53.254;10.398;2022-07-12T14:45:10;30.10;96.10
13231;DHT22;6681;53.254;10.398;2022-07-12T14:47:36;30.20;96.20
13231;DHT22;6681;53.254;10.398;2022-07-12T14:50:02;30.10;97.40
13231;DHT22;6681;53.254;10.398;2022-07-12T14:55:14;30.10;94.50
13231;DHT22;6681;53.254;10.398;2022-07-12T14:57:40;30.20;96.60
13231;DHT22;6681;53.254;10.398;2022-07-12T15:00:07;30.30;95.10
13231;DHT22;6681;53.254;10.398;2022-07-12T15:02:36;30.40;98.10
13231;DHT22;6681;53.254;10.398;2022-07-12T15:05:02;30.50;95.60
13231;DHT22;6681;53.254;10.398;2022-07-12T15:07:31;30.70;95.10
13231;DHT22;6681;53.254;10.398;2022-07-12T15:09:56;30.70;93.50
13231;DHT22;6681;53.254;10.398;2022-07-12T15:12:23;30.80;94.30
13231;DHT22;6681;53.254;10.398;2022-07-12T15:15:08;31.00;93.70
13231;DHT22;6681;53.254;10.398;2022-07-12T15:17:34;31.10;94.00
13231;DHT22;6681;53.254;10.398;2022-07-12T15:19:59;31.10;94.90
13231;DHT22;6681;53.254;10.398;2022-07-12T15:22:25;31.20;94.10
13231;DHT22;6681;53.254;10.398;2022-07-12T15:24:51;31.30;94.40
13231;DHT22;6681;53.254;10.398;2022-07-12T15:27:16;31.40;92.20
13231;DHT22;6681;53.254;10.398;2022-07-12T15:29:42;31.50;93.20
13231;DHT22;6681;53.254;10.398;2022-07-12T15:32:26;31.30;91.90
13231;DHT22;6681;53.254;10.398;2022-07-12T15:34:52;31.20;91.10
13231;DHT22;6681;53.254;10.398;2022-07-12T15:37:18;31.10;92.00
13231;DHT22;6681;53.254;10.398;2022-07-12T15:39:44;31.10;90.40
13231;DHT22;6681;53.254;10.398;2022-07-12T15:42:10;31.00;92.40
13231;DHT22;6681;53.254;10.398;2022-07-12T15:47:20;30.90;91.90
13231;DHT22;6681;53.254;10.398;2022-07-12T15:52:49;30.80;94.00
13231;DHT22;6681;53.254;10.398;2022-07-12T15:55:33;30.70;94.50
13231;DHT22;6681;53.254;10.398;2022-07-12T15:57:59;30.60;94.30
13231;DHT22;6681;53.254;10.398;2022-07-12T16:00:25;30.40;93.00
13231;DHT22;6681;53.254;10.398;2022-07-12T16:02:51;30.50;94.60
13231;DHT22;6681;53.254;10.398;2022-07-12T16:05:18;30.60;94.60
13231;DHT22;6681;53.254;10.398;2022-07-12T16:07:44;30.40;94.10
13231;DHT22;6681;53.254;10.398;2022-07-12T16:10:10;30.40;94.50